Weichang, China
Current Conditions -  °F | °C
As of 2:00 PM on Thursday 29 Jan 2015 (Local Time) from ZBAA Reporting Station
Clear Clear  
Wind Chill:   Ceiling: Unl
Heat Index:   Visibility: 6mi
Dew Point: -17°   Wind: 16mph
Humidity: 19%   Direction: 300°WNW
Pressure: 30.33"   Gusts: 34mph
Location:  41.93°N, 117.75°E
Report Text: ZBAA 290600Z 30007G15MPS 260V330 CAVOK 05/M17 Q1027 NOSIG
Loading
Personal Weather Stations






























Interactive Weather Map New forecast layout! Learn more

10-Day Weather Forecast

Advertisements
Track Severe Weather on mobile